Time;durP1;ratioP1;P1;durP2;ratioP2;P2;SDS_P1;SDS_P2;PMS_P1;PMS_P2;Temp;Humidity;BMP_temperature;BMP_pressure;BME280_temperature;BME280_humidity;BME280_pressure;Samples;Min_cycle;Max_cycle;Signal;HPM_P1;HPM_P2
2022/08/09 00:02:07;;;;;;;7.90;2.35;;;17.60;99.90;;;;;;5031292;28;20406;-82
2022/08/09 00:04:33;;;;;;;6.00;2.72;;;17.50;99.90;;;;;;5030175;28;20018;-79
2022/08/09 00:07:01;;;;;;;4.60;2.47;;;17.50;99.90;;;;;;5029513;28;20022;-80
2022/08/09 00:09:27;;;;;;;7.85;2.38;;;17.60;99.90;;;;;;5039361;28;20029;-79
2022/08/09 00:11:53;;;;;;;6.25;2.10;;;17.60;99.90;;;;;;5022961;28;20117;-79
2022/08/09 00:14:22;;;;;;;3.70;2.40;;;17.60;99.90;;;;;;5039260;28;20021;-81
2022/08/09 00:16:48;;;;;;;3.50;2.55;;;17.50;99.90;;;;;;5024388;28;20057;-79
2022/08/09 00:19:14;;;;;;;4.68;2.45;;;17.50;99.90;;;;;;5039055;28;20021;-80
2022/08/09 00:21:40;;;;;;;4.97;2.38;;;17.40;99.90;;;;;;5030512;28;20040;-81
2022/08/09 00:24:06;;;;;;;3.30;2.17;;;17.50;99.90;;;;;;5028980;28;20025;-81
2022/08/09 00:26:32;;;;;;;3.92;2.55;;;17.50;99.90;;;;;;5019756;28;20039;-80
2022/08/09 00:28:58;;;;;;;5.28;2.60;;;17.40;99.90;;;;;;5028275;28;20021;-79
2022/08/09 00:31:25;;;;;;;4.50;2.83;;;17.40;99.90;;;;;;5034970;28;20026;-80
2022/08/09 00:33:52;;;;;;;3.03;2.60;;;17.30;99.90;;;;;;5035185;28;20044;-78
2022/08/09 00:36:19;;;;;;;6.53;2.78;;;17.30;99.90;;;;;;5028011;28;20108;-78
2022/08/09 00:38:44;;;;;;;7.25;2.60;;;17.30;99.90;;;;;;5010099;28;20036;-81
2022/08/09 00:41:12;;;;;;;3.63;2.50;;;17.20;99.90;;;;;;5029755;28;20022;-80
2022/08/09 00:43:39;;;;;;;6.38;2.70;;;17.20;99.90;;;;;;5011658;28;20476;-79
2022/08/09 00:46:08;;;;;;;5.88;2.63;;;17.20;99.90;;;;;;5026691;28;20057;-78
2022/08/09 00:48:34;;;;;;;8.00;2.75;;;17.10;99.90;;;;;;5006269;28;20021;-80
2022/08/09 00:51:02;;;;;;;4.28;2.70;;;17.10;99.90;;;;;;5012436;28;20029;-81
2022/08/09 00:53:30;;;;;;;8.30;3.15;;;17.10;99.90;;;;;;5029152;28;20033;-79
2022/08/09 00:55:56;;;;;;;6.97;2.63;;;17.10;99.90;;;;;;5028560;28;20378;-81
2022/08/09 00:58:22;;;;;;;4.50;2.47;;;17.10;99.90;;;;;;5020524;28;20030;-80
2022/08/09 01:00:53;;;;;;;5.03;2.88;;;17.10;99.90;;;;;;5011415;28;20034;-80
2022/08/09 01:03:35;;;;;;;5.82;2.78;;;17.10;99.90;;;;;;5013303;28;20040;-81
2022/08/09 01:06:08;;;;;;;4.88;2.30;;;17.10;99.90;;;;;;5033466;28;20073;-81
2022/08/09 01:08:47;;;;;;;6.45;2.70;;;17.10;99.90;;;;;;5020395;28;20022;-81
2022/08/09 01:11:27;;;;;;;4.97;2.40;;;17.10;99.90;;;;;;5013028;28;20033;-79
2022/08/09 01:14:03;;;;;;;6.28;2.45;;;17.10;99.90;;;;;;5034306;28;20029;-79
2022/08/09 01:16:41;;;;;;;2.60;2.17;;;17.10;99.90;;;;;;5025200;28;20034;-81
2022/08/09 01:19:50;;;;;;;4.63;2.17;;;17.10;99.90;;;;;;5020898;28;20034;-79
2022/08/09 01:22:22;;;;;;;6.43;2.72;;;17.20;99.90;;;;;;4988301;28;20120;-79
2022/08/09 01:25:06;;;;;;;5.85;2.40;;;17.20;99.90;;;;;;5031762;28;20033;-80
2022/08/09 01:27:37;;;;;;;4.47;2.57;;;17.20;99.90;;;;;;5007068;28;20038;-80
2022/08/09 01:30:06;;;;;;;3.63;2.40;;;17.20;99.90;;;;;;5028397;28;20022;-79
2022/08/09 01:32:36;;;;;;;5.45;2.30;;;17.20;99.90;;;;;;5000940;28;20025;-80
2022/08/09 01:35:08;;;;;;;5.00;2.10;;;17.20;99.90;;;;;;5029162;28;20072;-81
2022/08/09 01:37:36;;;;;;;3.60;1.90;;;17.30;99.90;;;;;;5028483;28;20114;-81
2022/08/09 01:40:05;;;;;;;6.07;2.42;;;17.30;99.90;;;;;;5022429;28;20378;-80
2022/08/09 01:42:33;;;;;;;3.47;2.08;;;17.30;99.90;;;;;;5004442;28;20108;-82
2022/08/09 01:45:00;;;;;;;3.38;2.00;;;17.30;99.90;;;;;;5006698;28;20026;-80
2022/08/09 01:47:27;;;;;;;3.95;2.13;;;17.30;99.90;;;;;;5027009;28;20029;-79
2022/08/09 01:49:56;;;;;;;5.97;2.25;;;17.30;99.90;;;;;;5011675;28;20030;-80
2022/08/09 01:52:24;;;;;;;3.90;2.22;;;17.30;99.90;;;;;;5034901;28;20026;-79
2022/08/09 01:54:54;;;;;;;6.13;2.33;;;17.30;99.90;;;;;;5021205;28;20058;-79
2022/08/09 01:57:36;;;;;;;3.17;2.17;;;17.30;99.90;;;;;;5048539;28;20036;-79
2022/08/09 02:00:07;;;;;;;9.80;2.67;;;17.30;99.90;;;;;;5029278;28;20037;-78
2022/08/09 02:02:46;;;;;;;5.10;2.17;;;17.30;99.90;;;;;;5029057;28;20039;-79
2022/08/09 02:05:17;;;;;;;9.07;2.35;;;17.30;99.90;;;;;;5029774;28;20029;-78
2022/08/09 02:07:50;;;;;;;3.45;2.05;;;17.30;99.90;;;;;;5022559;28;20440;-80
2022/08/09 02:10:19;;;;;;;10.57;2.50;;;17.30;99.90;;;;;;5012372;28;20076;-80
2022/08/09 02:12:47;;;;;;;4.90;2.33;;;17.30;99.90;;;;;;5013863;28;20029;-80
2022/08/09 02:15:16;;;;;;;5.45;2.40;;;17.20;99.90;;;;;;5012073;28;20053;-80
2022/08/09 02:17:48;;;;;;;6.80;2.47;;;17.20;99.90;;;;;;5018370;28;20128;-79
2022/08/09 02:20:14;;;;;;;4.07;2.10;;;17.20;99.90;;;;;;5025558;28;20033;-79
2022/08/09 02:23:00;;;;;;;3.03;2.10;;;17.20;99.90;;;;;;5006504;28;20053;-79
2022/08/09 02:25:29;;;;;;;5.82;2.03;;;17.20;99.90;;;;;;5001581;28;20471;-79
2022/08/09 02:28:27;;;;;;;5.90;2.38;;;17.20;99.90;;;;;;5000712;28;20026;-80
2022/08/09 02:31:02;;;;;;;3.15;2.20;;;17.10;99.90;;;;;;5029770;28;20041;-80
2022/08/09 02:33:32;;;;;;;3.30;2.08;;;17.10;99.90;;;;;;5028616;28;20063;-80
2022/08/09 02:35:59;;;;;;;4.57;2.20;;;17.10;99.90;;;;;;5015594;28;20018;-79
2022/08/09 02:38:29;;;;;;;5.18;2.20;;;17.10;99.90;;;;;;4997625;28;20037;-79
2022/08/09 02:41:01;;;;;;;5.30;2.40;;;17.10;99.90;;;;;;5024389;28;20398;-79
2022/08/09 02:43:30;;;;;;;7.25;2.22;;;17.10;99.90;;;;;;5006485;28;20034;-81
2022/08/09 02:46:00;;;;;;;4.05;2.22;;;17.10;99.90;;;;;;5035193;28;20025;-80
2022/08/09 02:48:26;;;;;;;8.38;2.08;;;17.10;99.90;;;;;;5035493;28;20021;-81
2022/08/09 02:50:56;;;;;;;2.50;2.30;;;17.10;99.90;;;;;;5008363;28;20025;-78
2022/08/09 02:53:50;;;;;;;7.22;2.20;;;17.10;99.90;;;;;;5024840;28;20065;-79
2022/08/09 02:56:19;;;;;;;5.75;2.22;;;17.10;99.90;;;;;;5021208;28;20068;-79
2022/08/09 02:58:46;;;;;;;5.93;2.13;;;17.10;99.90;;;;;;5022807;28;20025;-79
2022/08/09 03:01:14;;;;;;;7.95;2.38;;;17.10;99.90;;;;;;5007120;28;20044;-79
2022/08/09 03:03:41;;;;;;;9.52;2.22;;;17.00;99.90;;;;;;5009967;28;20172;-78
2022/08/09 03:06:13;;;;;;;3.90;2.30;;;17.00;99.90;;;;;;5030659;28;20045;-78
2022/08/09 03:08:42;;;;;;;5.45;2.38;;;17.00;99.90;;;;;;5007479;28;20038;-79
2022/08/09 03:11:09;;;;;;;5.57;2.28;;;17.00;99.90;;;;;;5009769;28;20030;-80
2022/08/09 03:13:36;;;;;;;4.03;2.10;;;17.00;99.90;;;;;;5022215;28;20044;-79
2022/08/09 03:16:02;;;;;;;3.05;2.20;;;16.90;99.90;;;;;;5023475;28;20018;-80
2022/08/09 03:18:29;;;;;;;8.05;2.50;;;16.90;99.90;;;;;;5018304;28;20508;-79
2022/08/09 03:20:57;;;;;;;4.72;2.10;;;16.90;99.90;;;;;;5020188;28;20440;-81
2022/08/09 03:23:23;;;;;;;4.78;2.00;;;16.90;99.90;;;;;;5017734;28;20030;-78
2022/08/09 03:25:49;;;;;;;5.25;2.15;;;16.90;99.90;;;;;;5018220;28;20441;-78
2022/08/09 03:28:16;;;;;;;4.47;2.30;;;16.90;99.90;;;;;;5042794;28;20034;-79
2022/08/09 03:30:42;;;;;;;3.45;2.10;;;16.90;99.90;;;;;;4991691;28;20118;-77
2022/08/09 03:33:08;;;;;;;11.27;2.55;;;16.90;99.90;;;;;;5041820;28;20048;-79
2022/08/09 03:35:34;;;;;;;6.40;2.30;;;16.80;99.90;;;;;;4998073;28;20113;-78
2022/08/09 03:38:01;;;;;;;3.47;2.30;;;16.90;99.90;;;;;;5045659;28;20025;-79
2022/08/09 03:40:27;;;;;;;6.50;2.38;;;16.90;99.90;;;;;;5037902;28;20037;-80
2022/08/09 03:42:52;;;;;;;4.65;2.45;;;16.90;99.90;;;;;;5037831;28;20029;-81
2022/08/09 03:45:18;;;;;;;5.22;2.10;;;16.90;99.90;;;;;;5037846;28;20086;-79
2022/08/09 03:47:44;;;;;;;3.80;2.15;;;16.90;99.90;;;;;;5027251;28;20089;-80
2022/08/09 03:50:12;;;;;;;7.15;2.35;;;16.90;99.90;;;;;;5039985;28;20028;-79
2022/08/09 03:52:41;;;;;;;3.90;2.20;;;16.90;99.90;;;;;;5038127;28;20026;-78
2022/08/09 03:55:09;;;;;;;4.28;2.30;;;16.90;99.90;;;;;;5013885;28;20021;-80
2022/08/09 03:57:35;;;;;;;10.13;2.30;;;16.90;99.90;;;;;;5022498;28;20025;-78
2022/08/09 04:00:01;;;;;;;8.43;2.03;;;16.90;99.90;;;;;;5020451;28;20030;-79
2022/08/09 04:02:38;;;;;;;4.32;2.28;;;16.90;99.90;;;;;;5039612;28;20049;-80
2022/08/09 04:05:04;;;;;;;3.85;1.92;;;16.90;99.90;;;;;;5030162;28;20056;-82
2022/08/09 04:07:30;;;;;;;3.75;2.38;;;16.90;99.90;;;;;;5028448;28;20096;-80
2022/08/09 04:09:56;;;;;;;7.70;1.92;;;16.90;99.90;;;;;;5026331;28;20498;-80
2022/08/09 04:12:46;;;;;;;3.55;2.22;;;16.90;99.90;;;;;;5028068;28;20018;-81
2022/08/09 04:15:13;;;;;;;3.95;2.55;;;16.90;99.90;;;;;;5015015;28;20521;-79
2022/08/09 04:17:40;;;;;;;4.95;2.25;;;16.90;99.90;;;;;;5013508;28;20033;-78
2022/08/09 04:20:07;;;;;;;6.15;2.28;;;16.90;99.90;;;;;;5023541;28;20050;-80
2022/08/09 04:22:34;;;;;;;6.47;2.30;;;16.90;99.90;;;;;;5024364;28;20037;-81
2022/08/09 04:25:00;;;;;;;9.30;2.13;;;17.00;99.90;;;;;;5032447;28;20033;-80
2022/08/09 04:27:26;;;;;;;2.60;1.88;;;17.00;99.90;;;;;;5015411;28;20108;-79
2022/08/09 04:29:54;;;;;;;6.65;2.33;;;17.00;99.90;;;;;;5027173;28;20469;-78
2022/08/09 04:32:19;;;;;;;5.30;2.45;;;17.10;99.90;;;;;;5020397;28;20056;-80
2022/08/09 04:34:45;;;;;;;9.82;2.70;;;17.10;99.90;;;;;;5011989;28;20599;-80
2022/08/09 04:37:11;;;;;;;4.28;2.30;;;17.20;99.90;;;;;;5013812;28;20579;-81
2022/08/09 04:39:37;;;;;;;8.85;2.50;;;17.20;99.90;;;;;;5021819;28;20338;-81
2022/08/09 04:42:03;;;;;;;10.20;2.60;;;17.30;99.90;;;;;;5040218;28;20028;-81
2022/08/09 04:44:29;;;;;;;5.22;2.30;;;17.30;99.90;;;;;;5015966;28;20127;-81
2022/08/09 04:46:55;;;;;;;4.80;2.33;;;17.40;99.90;;;;;;5004789;28;20478;-81
2022/08/09 04:49:21;;;;;;;6.22;2.42;;;17.40;99.90;;;;;;5030546;28;20056;-81
2022/08/09 04:51:46;;;;;;;5.35;2.58;;;17.50;99.90;;;;;;5025891;28;20018;-81
2022/08/09 04:54:12;;;;;;;5.78;2.08;;;17.50;99.90;;;;;;5030577;28;20417;-82
2022/08/09 04:56:38;;;;;;;2.80;2.28;;;17.60;99.90;;;;;;5032498;28;20026;-83
2022/08/09 04:59:04;;;;;;;5.10;1.95;;;17.60;99.90;;;;;;5047764;22;20042;-84
2022/08/09 05:01:30;;;;;;;7.25;2.05;;;17.70;99.90;;;;;;5052822;28;20327;-89
2022/08/09 05:03:56;;;;;;;5.97;2.10;;;17.80;99.90;;;;;;5024569;28;20037;-87
2022/08/09 05:06:22;;;;;;;5.47;2.15;;;17.80;99.90;;;;;;5019380;28;20048;-89
2022/08/09 05:08:49;;;;;;;6.95;2.22;;;17.90;99.90;;;;;;5034748;28;20075;-88
2022/08/09 05:11:15;;;;;;;3.03;2.03;;;18.00;99.90;;;;;;5041044;28;20070;-89
2022/08/09 05:13:42;;;;;;;5.00;2.35;;;18.00;99.90;;;;;;5046900;28;20231;-90
2022/08/09 05:16:08;;;;;;;3.00;2.00;;;18.10;99.90;;;;;;5025143;28;20034;-88
2022/08/09 05:18:35;;;;;;;5.78;2.13;;;18.20;99.90;;;;;;5322386;22;20030;-90
2022/08/09 05:21:01;;;;;;;5.60;2.13;;;18.30;99.90;;;;;;5033202;28;20037;-90
2022/08/09 05:23:27;;;;;;;5.40;2.22;;;18.50;99.90;;;;;;5004464;28;20402;-89
2022/08/09 05:25:53;;;;;;;11.90;2.17;;;18.80;99.90;;;;;;5040895;28;20084;-89
2022/08/09 05:28:20;;;;;;;5.63;2.05;;;18.80;99.90;;;;;;5032637;28;20032;-90
2022/08/09 05:30:47;;;;;;;4.07;2.40;;;18.90;99.90;;;;;;5032149;28;20033;-91
2022/08/09 05:33:13;;;;;;;7.78;2.40;;;19.00;99.90;;;;;;5018401;28;20018;-87
2022/08/09 05:35:39;;;;;;;9.60;2.45;;;19.20;99.90;;;;;;5023677;28;20030;-89
2022/08/09 05:38:05;;;;;;;5.22;2.25;;;19.40;99.90;;;;;;5031282;28;20036;-88
2022/08/09 05:40:31;;;;;;;6.55;2.22;;;19.50;99.90;;;;;;5024208;28;20121;-88
2022/08/09 05:42:57;;;;;;;7.68;2.22;;;19.50;99.90;;;;;;5020407;28;20053;-89
2022/08/09 05:45:24;;;;;;;4.45;2.17;;;19.40;99.90;;;;;;5027151;28;20021;-89
2022/08/09 05:47:50;;;;;;;6.90;2.17;;;19.50;99.90;;;;;;5038359;28;20048;-88
2022/08/09 05:50:16;;;;;;;13.70;2.33;;;19.50;99.90;;;;;;5037182;28;20025;-90
2022/08/09 05:52:43;;;;;;;4.43;2.10;;;19.60;99.90;;;;;;5052670;28;20048;-88
2022/08/09 05:55:10;;;;;;;9.02;2.60;;;19.70;99.90;;;;;;5038513;28;20064;-89
2022/08/09 05:57:36;;;;;;;8.75;2.20;;;19.70;99.90;;;;;;5036551;28;20051;-88
2022/08/09 06:00:06;;;;;;;5.25;2.15;;;19.70;99.90;;;;;;5035759;28;20020;-89
2022/08/09 06:02:37;;;;;;;3.50;2.10;;;19.80;99.90;;;;;;5041813;28;20036;-90
2022/08/09 06:05:03;;;;;;;7.30;1.98;;;19.90;99.90;;;;;;5041322;28;20025;-89
2022/08/09 06:07:29;;;;;;;2.90;1.77;;;20.00;99.90;;;;;;5024511;28;20033;-89
2022/08/09 06:09:55;;;;;;;7.82;2.33;;;19.90;99.90;;;;;;5040965;28;20041;-88
2022/08/09 06:12:21;;;;;;;4.70;2.15;;;20.00;99.90;;;;;;5039944;28;20045;-88
2022/08/09 06:14:47;;;;;;;8.63;2.05;;;20.00;99.90;;;;;;5038148;28;20405;-88
2022/08/09 06:17:13;;;;;;;4.38;2.20;;;19.90;99.90;;;;;;5052388;28;20081;-88
2022/08/09 06:19:39;;;;;;;6.65;2.22;;;19.80;99.90;;;;;;5051428;28;20057;-88
2022/08/09 06:22:05;;;;;;;4.38;1.83;;;19.90;99.90;;;;;;5052425;28;20025;-89
2022/08/09 06:24:31;;;;;;;5.90;2.45;;;19.90;99.90;;;;;;5052189;28;20112;-89
2022/08/09 06:26:59;;;;;;;4.75;2.10;;;20.00;99.90;;;;;;5051954;28;20017;-88
2022/08/09 06:29:25;;;;;;;8.30;2.10;;;20.10;99.90;;;;;;5056622;28;20097;-87
2022/08/09 06:31:51;;;;;;;3.40;1.83;;;20.20;99.90;;;;;;5040412;28;20045;-86
2022/08/09 06:34:18;;;;;;;5.18;1.92;;;20.20;99.90;;;;;;5056722;28;20048;-87
2022/08/09 06:36:44;;;;;;;5.00;2.00;;;20.20;99.90;;;;;;5040605;28;20013;-87
2022/08/09 06:39:12;;;;;;;6.00;2.55;;;20.20;99.90;;;;;;5040222;28;20039;-87
2022/08/09 06:41:39;;;;;;;7.57;1.83;;;20.30;99.90;;;;;;5023441;28;20032;-88
2022/08/09 06:44:13;;;;;;;5.75;2.40;;;20.40;99.90;;;;;;5040047;28;20049;-88
2022/08/09 06:46:39;;;;;;;8.35;2.50;;;20.40;99.80;;;;;;5055351;28;20048;-89
2022/08/09 06:49:06;;;;;;;3.97;2.03;;;20.40;99.90;;;;;;5036289;28;20037;-89
2022/08/09 06:51:34;;;;;;;5.85;2.17;;;20.40;99.90;;;;;;5019127;28;20025;-90
2022/08/09 06:54:01;;;;;;;2.85;1.90;;;20.50;99.90;;;;;;5034470;28;20020;-89
2022/08/09 06:56:28;;;;;;;5.00;2.33;;;20.50;99.90;;;;;;5033875;28;20033;-90
2022/08/09 06:58:56;;;;;;;6.25;2.35;;;20.60;99.90;;;;;;5033789;28;20023;-89
2022/08/09 07:01:26;;;;;;;5.10;2.40;;;20.60;99.90;;;;;;5034137;28;20023;-91
2022/08/09 07:03:52;;;;;;;8.73;2.80;;;20.60;99.80;;;;;;5033728;28;20033;-88
2022/08/09 07:06:18;;;;;;;6.03;2.38;;;20.60;99.90;;;;;;5015154;28;20034;-88
2022/08/09 07:08:44;;;;;;;5.35;2.63;;;20.60;99.90;;;;;;5014773;28;20026;-87
2022/08/09 07:11:11;;;;;;;5.10;2.28;;;20.70;99.90;;;;;;5015811;28;20044;-88
2022/08/09 07:13:40;;;;;;;2.55;1.75;;;20.70;99.90;;;;;;5020187;28;20025;-88
2022/08/09 07:16:06;;;;;;;6.55;2.47;;;20.80;99.80;;;;;;5020208;28;20026;-88
2022/08/09 07:18:32;;;;;;;5.05;2.45;;;20.80;99.90;;;;;;5001325;28;20042;-88
2022/08/09 07:20:58;;;;;;;5.78;2.22;;;20.80;99.90;;;;;;5030422;28;20029;-88
2022/08/09 07:23:24;;;;;;;12.48;2.40;;;21.00;99.80;;;;;;5010946;28;20018;-87
2022/08/09 07:25:50;;;;;;;6.50;2.40;;;21.00;99.50;;;;;;5010922;28;20101;-89
2022/08/09 07:28:15;;;;;;;4.63;2.33;;;21.00;99.70;;;;;;4998296;28;20073;-88
2022/08/09 07:30:41;;;;;;;8.15;2.83;;;21.10;99.60;;;;;;5011491;28;20037;-88
2022/08/09 07:33:07;;;;;;;10.20;2.65;;;21.20;99.40;;;;;;5029185;28;20037;-88
2022/08/09 07:35:33;;;;;;;5.38;2.13;;;21.10;99.20;;;;;;5029561;28;20030;-89
2022/08/09 07:38:00;;;;;;;8.40;2.30;;;21.20;99.50;;;;;;4995558;28;20101;-90
2022/08/09 07:40:26;;;;;;;5.18;2.58;;;21.20;99.70;;;;;;5032398;28;20033;-90
2022/08/09 07:42:58;;;;;;;10.13;2.40;;;21.20;99.50;;;;;;5034825;28;20086;-88
2022/08/09 07:45:27;;;;;;;6.97;2.88;;;21.30;99.60;;;;;;5022758;28;20025;-89
2022/08/09 07:47:54;;;;;;;8.32;2.45;;;21.40;99.50;;;;;;5030092;28;20026;-87
2022/08/09 07:50:29;;;;;;;6.32;2.00;;;21.40;99.50;;;;;;5034136;28;20063;-87
2022/08/09 07:52:55;;;;;;;;;;;21.50;99.40;;;;;;5035865;28;20034;-88
2022/08/09 07:55:24;;;;;;;11.57;3.17;;;21.60;99.10;;;;;;5036841;28;19955;-88
2022/08/09 07:57:50;;;;;;;5.07;2.25;;;21.60;99.30;;;;;;5031175;28;20025;-88
2022/08/09 08:00:21;;;;;;;7.55;2.53;;;21.60;99.40;;;;;;5029549;28;20045;-88
2022/08/09 08:02:53;;;;;;;8.00;2.20;;;21.80;99.10;;;;;;5034564;28;20030;-87
2022/08/09 08:05:37;;;;;;;5.57;2.25;;;21.90;99.30;;;;;;5031917;28;20029;-89
2022/08/09 08:08:07;;;;;;;5.47;2.10;;;22.00;99.10;;;;;;5029838;28;20030;-88
2022/08/09 08:10:39;;;;;;;16.88;2.72;;;22.00;98.70;;;;;;5034661;28;20017;-88
2022/08/09 08:13:05;;;;;;;5.93;2.40;;;22.10;99.00;;;;;;5029252;28;20029;-87
2022/08/09 08:15:31;;;;;;;5.95;2.20;;;22.20;98.70;;;;;;5029189;28;20040;-87
2022/08/09 08:17:57;;;;;;;11.32;2.40;;;22.20;98.60;;;;;;5024185;28;20172;-90
2022/08/09 08:20:25;;;;;;;7.70;2.45;;;22.30;98.60;;;;;;5042620;28;20048;-89
2022/08/09 08:22:51;;;;;;;5.72;2.03;;;22.30;98.60;;;;;;5045585;28;20018;-89
2022/08/09 08:25:17;;;;;;;5.15;1.95;;;22.40;98.30;;;;;;5031972;28;20033;-88
2022/08/09 08:27:43;;;;;;;6.88;2.22;;;22.40;98.40;;;;;;5024864;28;20061;-90
2022/08/09 08:30:12;;;;;;;14.45;2.63;;;22.50;98.40;;;;;;5043044;28;20048;-88
2022/08/09 08:32:43;;;;;;;7.35;2.30;;;22.50;98.30;;;;;;5024899;28;20026;-88
2022/08/09 08:35:10;;;;;;;4.57;1.92;;;22.70;98.30;;;;;;5029203;28;20018;-89
2022/08/09 08:37:36;;;;;;;8.00;2.00;;;22.70;97.80;;;;;;5031018;28;20033;-89
2022/08/09 08:40:06;;;;;;;8.38;2.97;;;22.70;97.70;;;;;;5044333;28;20022;-89
2022/08/09 08:42:32;;;;;;;6.47;2.63;;;22.80;97.70;;;;;;5025350;28;20064;-90
2022/08/09 08:45:00;;;;;;;6.97;2.70;;;22.90;97.80;;;;;;5026423;28;20026;-90
2022/08/09 08:47:28;;;;;;;5.40;1.98;;;23.00;97.60;;;;;;5034644;28;20037;-89
2022/08/09 08:49:55;;;;;;;7.45;2.17;;;23.00;97.30;;;;;;5023907;28;20022;-89
2022/08/09 08:52:26;;;;;;;8.98;2.55;;;23.10;97.00;;;;;;5026596;28;20037;-89
2022/08/09 08:54:57;;;;;;;8.85;2.47;;;23.30;97.10;;;;;;5030221;28;20018;-89
2022/08/09 08:57:25;;;;;;;5.60;2.50;;;23.40;97.00;;;;;;5024008;28;20216;-89
2022/08/09 08:59:54;;;;;;;6.63;2.70;;;23.50;97.10;;;;;;5031389;28;20217;-89
2022/08/09 09:02:26;;;;;;;8.70;2.60;;;23.70;96.40;;;;;;5027157;28;20069;-91
2022/08/09 09:04:55;;;;;;;8.52;2.50;;;23.70;96.20;;;;;;5027156;28;20089;-90
2022/08/09 09:07:22;;;;;;;7.20;2.40;;;23.90;96.00;;;;;;5012623;28;20116;-88
2022/08/09 09:09:50;;;;;;;8.30;2.53;;;23.90;96.20;;;;;;5027238;28;20026;-90
2022/08/09 09:12:18;;;;;;;3.05;2.20;;;24.00;95.80;;;;;;5012069;28;20474;-88
2022/08/09 09:14:45;;;;;;;3.90;2.22;;;24.00;95.60;;;;;;5029846;28;20017;-89
2022/08/09 09:17:11;;;;;;;9.20;2.42;;;24.00;95.60;;;;;;5028510;28;20049;-87
2022/08/09 09:19:37;;;;;;;6.18;2.60;;;24.20;95.70;;;;;;5043146;28;20006;-87
2022/08/09 09:22:22;;;;;;;6.30;2.08;;;24.30;95.60;;;;;;5046837;28;20014;-89
2022/08/09 09:24:53;;;;;;;8.20;2.40;;;24.40;95.30;;;;;;5039278;28;20075;-89
2022/08/09 09:27:27;;;;;;;6.65;1.95;;;24.50;95.00;;;;;;5022176;28;20026;-89
2022/08/09 09:29:54;;;;;;;6.20;2.72;;;24.60;94.60;;;;;;5024506;28;20018;-89
2022/08/09 09:32:22;;;;;;;6.78;2.03;;;24.70;94.70;;;;;;5019809;28;20038;-88
2022/08/09 09:35:08;;;;;;;4.68;1.95;;;24.80;94.50;;;;;;5028451;28;20022;-90
2022/08/09 09:37:34;;;;;;;3.33;2.00;;;25.10;93.70;;;;;;5013039;28;20033;-89
2022/08/09 09:40:00;;;;;;;6.38;2.63;;;25.60;93.50;;;;;;5025448;28;20036;-88
2022/08/09 09:42:31;;;;;;;5.47;2.30;;;26.30;92.80;;;;;;5014631;28;20022;-89
2022/08/09 09:45:05;;;;;;;5.25;2.20;;;27.00;91.40;;;;;;5017179;28;20072;-89
2022/08/09 09:47:32;;;;;;;7.30;2.45;;;27.60;90.50;;;;;;5038746;28;20097;-89
2022/08/09 09:49:58;;;;;;;3.70;2.00;;;28.60;89.20;;;;;;5020948;28;20021;-88
2022/08/09 09:52:31;;;;;;;5.47;2.10;;;29.50;86.00;;;;;;5019346;28;20517;-88
2022/08/09 09:55:01;;;;;;;8.98;2.28;;;29.60;83.90;;;;;;5021602;28;20044;-89
2022/08/09 09:57:27;;;;;;;9.55;2.13;;;29.70;83.30;;;;;;5017135;28;20021;-89
2022/08/09 09:59:54;;;;;;;6.60;1.95;;;30.80;81.00;;;;;;5042905;28;20032;-90
2022/08/09 10:02:21;;;;;;;6.65;1.90;;;31.80;77.70;;;;;;5034320;28;20049;-89
2022/08/09 10:05:06;;;;;;;4.47;1.90;;;32.60;75.10;;;;;;5040644;28;20021;-90
2022/08/09 10:07:32;;;;;;;6.82;2.22;;;33.90;71.90;;;;;;5050080;28;20025;-87
2022/08/09 10:10:00;;;;;;;5.60;2.30;;;33.30;71.00;;;;;;5043530;28;20561;-86
2022/08/09 10:12:28;;;;;;;5.18;2.10;;;32.30;71.80;;;;;;5041236;28;20084;-87
2022/08/09 10:15:16;;;;;;;5.03;2.35;;;32.20;71.60;;;;;;5007427;28;20085;-87
2022/08/09 10:17:45;;;;;;;9.20;1.90;;;31.70;71.60;;;;;;5009918;28;20029;-87
2022/08/09 10:20:20;;;;;;;10.52;2.22;;;31.50;72.40;;;;;;5022245;28;20026;-89
2022/08/09 10:22:59;;;;;;;4.78;2.05;;;31.90;70.70;;;;;;5032468;28;20393;-89
2022/08/09 10:25:27;;;;;;;3.70;2.05;;;31.20;70.80;;;;;;5013345;28;20030;-88
2022/08/09 10:27:56;;;;;;;4.90;1.98;;;30.80;71.50;;;;;;5028706;28;20030;-88
2022/08/09 10:30:22;;;;;;;7.80;2.25;;;31.80;70.30;;;;;;5032265;28;20024;-89
2022/08/09 10:32:50;;;;;;;5.93;2.22;;;33.30;68.50;;;;;;5036993;28;20048;-89
2022/08/09 10:35:25;;;;;;;5.80;2.60;;;35.40;65.70;;;;;;5034855;28;20034;-87
2022/08/09 10:38:04;;;;;;;5.20;1.92;;;36.90;63.30;;;;;;5011520;28;20056;-87
2022/08/09 10:40:37;;;;;;;5.57;1.98;;;36.60;60.70;;;;;;5024398;28;20025;-86
2022/08/09 10:43:04;;;;;;;6.18;1.98;;;36.60;60.50;;;;;;5031738;28;20096;-88
2022/08/09 10:45:31;;;;;;;4.13;2.08;;;37.40;59.00;;;;;;5024067;28;20500;-88
2022/08/09 10:48:22;;;;;;;5.63;1.77;;;37.60;58.10;;;;;;5024104;28;20057;-88
2022/08/09 10:51:42;;;;;;;8.68;2.10;;;37.50;57.20;;;;;;5024718;28;20105;-88
2022/08/09 10:54:11;;;;;;;3.63;1.90;;;38.30;56.10;;;;;;5032228;28;20148;-88
2022/08/09 10:56:39;;;;;;;5.50;2.13;;;39.20;54.20;;;;;;5012247;28;20026;-88
2022/08/09 10:59:23;;;;;;;2.97;1.67;;;40.20;52.50;;;;;;5002201;28;20034;-87
2022/08/09 11:01:51;;;;;;;5.50;1.80;;;40.70;51.50;;;;;;5048918;23;20045;-81
2022/08/09 11:04:27;;;;;;;4.88;2.05;;;40.60;50.50;;;;;;5030766;28;20030;-82
2022/08/09 11:06:58;;;;;;;4.72;1.80;;;41.30;50.10;;;;;;5048487;28;20049;-83
2022/08/09 11:09:42;;;;;;;5.47;1.60;;;40.80;49.50;;;;;;5040295;28;20468;-83
2022/08/09 11:12:08;;;;;;;;;;;41.60;48.70;;;;;;5022474;28;20038;-82
2022/08/09 11:14:47;;;;;;;2.10;1.73;;;40.70;48.00;;;;;;5039231;28;19927;-81
2022/08/09 11:17:12;;;;;;;5.18;2.00;;;40.90;47.80;;;;;;5019716;28;20029;-82
2022/08/09 11:19:57;;;;;;;4.35;1.90;;;40.60;47.70;;;;;;5036873;28;20025;-84
2022/08/09 11:22:42;;;;;;;3.00;1.65;;;40.90;47.10;;;;;;5025143;28;20040;-81
2022/08/09 11:25:23;;;;;;;4.15;1.65;;;40.90;47.00;;;;;;5030619;28;20033;-80
2022/08/09 11:27:50;;;;;;;2.55;1.70;;;41.00;46.80;;;;;;5050070;28;20044;-81
2022/08/09 11:30:22;;;;;;;4.05;1.88;;;41.70;46.00;;;;;;5032462;28;20018;-81
2022/08/09 11:32:56;;;;;;;7.38;2.00;;;42.60;44.90;;;;;;5050581;28;20087;-80
2022/08/09 11:35:37;;;;;;;2.28;1.70;;;41.60;44.80;;;;;;5051091;28;20112;-83
2022/08/09 11:38:31;;;;;;;3.20;1.90;;;42.50;44.20;;;;;;5048277;28;20038;-81
2022/08/09 11:41:00;;;;;;;5.95;1.88;;;43.60;43.20;;;;;;5045452;28;20033;-81
2022/08/09 11:43:29;;;;;;;3.47;1.58;;;43.00;43.00;;;;;;5043553;28;20072;-83
2022/08/09 11:46:00;;;;;;;2.03;1.65;;;43.00;43.00;;;;;;5043286;28;20052;-82
2022/08/09 11:48:44;;;;;;;5.22;1.40;;;43.90;41.70;;;;;;5050885;28;20033;-82
2022/08/09 11:51:10;;;;;;;4.70;1.60;;;43.80;41.50;;;;;;5047685;28;20111;-83
2022/08/09 11:53:37;;;;;;;3.90;1.65;;;43.70;41.40;;;;;;5025981;28;20025;-81
2022/08/09 11:56:19;;;;;;;4.95;2.17;;;43.10;41.30;;;;;;4992571;28;20030;-82
2022/08/09 11:58:52;;;;;;;4.25;1.80;;;40.60;42.50;;;;;;5021278;28;20030;-82
2022/08/09 12:01:33;;;;;;;5.13;1.80;;;39.10;43.70;;;;;;5022445;28;20485;-82
2022/08/09 12:04:05;;;;;;;3.33;1.55;;;39.40;43.40;;;;;;5020838;28;20045;-81
2022/08/09 12:06:32;;;;;;;10.40;2.25;;;40.30;43.00;;;;;;5003375;28;20448;-83
2022/08/09 12:08:59;;;;;;;3.15;1.60;;;40.70;42.90;;;;;;4988013;28;20100;-83
2022/08/09 12:11:26;;;;;;;3.83;1.70;;;40.30;42.60;;;;;;5023113;28;20528;-84
2022/08/09 12:13:57;;;;;;;4.80;1.85;;;40.10;42.80;;;;;;5022769;28;20369;-82
2022/08/09 12:16:30;;;;;;;3.63;1.75;;;40.20;43.00;;;;;;5022023;28;20045;-81
2022/08/09 12:18:57;;;;;;;2.30;1.58;;;41.10;42.40;;;;;;5003206;28;20248;-82
2022/08/09 12:21:30;;;;;;;5.32;1.70;;;41.40;42.00;;;;;;5021971;28;20509;-82
2022/08/09 12:24:00;;;;;;;4.20;1.50;;;41.30;42.00;;;;;;5024820;28;20386;-82
2022/08/09 12:26:49;;;;;;;4.88;1.60;;;41.90;41.60;;;;;;5021981;28;20021;-81
2022/08/09 12:29:20;;;;;;;2.60;1.70;;;42.90;41.30;;;;;;5031734;28;20109;-83
2022/08/09 12:31:48;;;;;;;10.43;1.85;;;43.00;40.40;;;;;;5042064;28;20068;-82
2022/08/09 12:34:15;;;;;;;3.80;1.60;;;42.00;40.90;;;;;;5023276;28;20056;-80
2022/08/09 12:36:55;;;;;;;1.90;1.50;;;41.60;41.30;;;;;;5039429;28;20049;-82
2022/08/09 12:39:21;;;;;;;4.68;3.20;;;41.30;41.50;;;;;;5046193;28;20093;-81
2022/08/09 12:41:47;;;;;;;3.25;1.90;;;41.70;41.70;;;;;;5042947;28;20030;-81
2022/08/09 12:44:14;;;;;;;4.68;1.98;;;41.20;41.10;;;;;;5022052;28;20053;-81
2022/08/09 12:46:43;;;;;;;2.45;1.50;;;41.10;41.10;;;;;;5023706;28;20096;-80
2022/08/09 12:49:10;;;;;;;3.80;1.77;;;41.60;41.00;;;;;;5043664;28;20029;-81
2022/08/09 12:51:36;;;;;;;6.00;1.90;;;42.20;40.90;;;;;;5042740;28;20026;-81
2022/08/09 12:54:04;;;;;;;2.85;1.80;;;42.70;40.60;;;;;;5043811;28;20080;-82
2022/08/09 12:56:30;;;;;;;3.78;1.80;;;43.00;40.60;;;;;;5046288;28;20018;-80
2022/08/09 12:59:15;;;;;;;2.25;1.60;;;43.80;40.10;;;;;;5041882;28;20131;-82
2022/08/09 13:01:58;;;;;;;6.35;1.30;;;44.60;39.20;;;;;;5040897;28;20044;-80